• Join FlightAware (Why Join?)
  • Login
  • US Flag 
10:51PM EDT


 

Airport Tracker/Info


-or-


 

Live Flight TrackerFlight Track Log ✈ DAL5916 ✈ 01-May-2013 ✈ KDCA - KLGA

Flight Track Log - Related Links

Times and Time Zones

All times are in EDT time to prevent confusion due to time zone crossing. See the DAL5916 flight status page for this flight to view local times or setup timezone preferences in your user account.

Time Position Orientation Groundspeed Altitude Reporting Facility
EDT Latitude Longitude Course Direction KTS MPH feet Rate Location/Type
02:48PM 38.8667 -77.0500 74° East 148 170 1,100  Level Potomac TRACON
02:49PM 38.9000 -77.1000 311° West 196 226 3,800 3,000 Climbing Potomac TRACON
02:50PM 38.9500 -77.1500 322° Northwest 248 285 7,100 2,760 Climbing Potomac TRACON
02:52PM 38.9509 -76.6305 67° East  Level FlightAware Approximate
02:53PM 38.9805 -76.5278 72° East  Level FlightAware Approximate
02:53PM 39.0481 -77.0750 31° Northeast 239 275 13,000  Level Washington Center
02:54PM 39.0043 -76.4225 74° East  Level FlightAware Approximate
02:54PM 39.0433 -76.9492 93° East 273 314 15,900  Level Washington Center
02:55PM 39.0386 -76.8128 93° East 327 376 18,200 2,520 Climbing Washington Center
02:56PM 39.0356 -76.6767 92° East 340 391 20,900 1,380 Climbing Washington Center
02:57PM 39.0286 -76.5347 94° East 377 434 21,000  Climbing Washington Center
02:58PM 39.0253 -76.3906 92° East 393 452 21,000  Level Washington Center
02:59PM 39.0533 -76.2464 76° East 398 458 21,000  Level Washington Center
03:00PM 39.0978 -76.0892 70° East 411 473 21,000  Level Washington Center
03:01PM 39.1483 -75.9608 63° Northeast 411 473 21,000  Level Washington Center
03:02PM 39.2111 -75.8381 57° Northeast 404 465 21,000  Level Washington Center
03:03PM 39.2739 -75.7203 55° Northeast 404 465 21,000  Level Washington Center
03:04PM 39.3386 -75.5997 55° Northeast 404 465 21,000  Level Washington Center
03:05PM 39.4008 -75.4789 56° Northeast 404 465 21,000  Level Washington Center
03:06PM 39.4611 -75.3603 57° Northeast 399 459 21,000  Level Washington Center
03:07PM 39.5317 -75.2472 51° Northeast 399 459 21,000  Level Washington Center
03:08PM 39.6231 -75.1658 34° Northeast 393 452 21,000  Level Washington Center
03:09PM 39.7042 -75.0925 35° Northeast 388 447 21,000 -360 Level Washington Center
03:10PM 39.8039 -75.0056 34° Northeast 394 453 20,300 -1,920 Descending Washington Center
03:11PM 39.8847 -74.9344 34° Northeast 394 453 17,200 -3,300 Descending Washington Center
03:12PM 39.9653 -74.8389 42° Northeast 389 448 13,800 -3,180 Descending Washington Center
03:12PM 40.0167 -74.7667 47° Northeast 361 415 11,900 -2,220 Descending New York TRACON
03:13PM 40.0833 -74.6667 49° Northeast 350 403 10,100 -960 Descending New York TRACON
03:14PM 40.1500 -74.5667 49° Northeast 350 403 10,000 -60 Descending New York TRACON
03:15PM 40.2000 -74.5000 46° Northeast 307 353 10,000 -240 Level New York TRACON
03:16PM 40.2500 -74.4333 45° Northeast 242 278 9,600 -540 Descending New York TRACON
03:17PM 40.3000 -74.3833 37° Northeast 235 270 9,000 -540 Descending New York TRACON
03:18PM 40.3333 -74.3167 57° Northeast 202 232 8,600 -720 Descending New York TRACON
03:19PM 40.3833 -74.2667 37° Northeast 192 221 7,600 -840 Descending New York TRACON
03:20PM 40.4167 -74.2167 49° Northeast 186 214 7,000 -300 Descending New York TRACON
03:21PM 40.4333 -74.1667 66° East 186 214 7,000 -300 Level New York TRACON
03:22PM 40.4833 -74.1333 27° Northeast 187 215 6,400 -1,020 Descending New York TRACON
03:23PM 40.5167 -74.0833 49° Northeast 186 214 5,000 -1,200 Descending New York TRACON
03:24PM 40.5667 -74.0500 27° Northeast 176 203 4,100 -840 Descending New York TRACON
03:25PM 40.6000 -74.0167 37° Northeast 177 204 3,400 -780 Descending New York TRACON
03:26PM 40.6500 -73.9833 27° Northeast 175 201 2,600 -780 Descending New York TRACON
03:27PM 40.6833 -73.9500 37° Northeast 178 205 1,900 -720 Descending New York TRACON